Latest Weather Observations for Richmond

IDN60801

Issued at 2:34 pm EDT Sunday 25 January 2015 (issued every 30 minutes, with the page automatically refreshed every 10 minutes)

About weather observations | Map of weather stations | Latest weather observations for NSW | Other Formats
Station Details ID: 067105 Name: RICHMOND RAAF Lat: -33.60 Lon: 150.78 Height: 19.0 m
Data from the previous 72 hours. | See also: Recent months at Richmond
Date/Time
EDT
Temp
°C
App
Temp
°C
Dew
Point
Rel
Hum
%
Delta-T
°C
Wind Press
QNH
hPa
Press
MSL
hPa
Rain
since 9 am
mm
Dir
 
Spd
km/h
Gust
km/h
Spd
kts
Gust
kts
25/02:30pm 35.4 32.5 17.1 33 11.8 WNW 28 39 15 21 1001.0 1000.9 0.0
25/02:00pm 35.3 33.3 18.4 37 11.1 W 26 39 14 21 1001.1 1001.0 0.0
25/01:30pm 34.8 31.7 16.6 33 11.6 W 28 41 15 22 1001.2 1001.1 0.0
25/01:00pm 34.0 32.7 17.2 36 10.8 WNW 20 35 11 19 1001.4 1001.3 0.0
25/12:30pm 32.7 35.6 20.6 49 8.1 N 6 13 3 7 1001.8 1001.7 0.0
25/12:00pm 31.4 34.0 20.0 50 7.6 NNW 6 13 3 7 1002.3 1002.2 0.0
25/11:30am 30.4 32.9 20.3 54 6.7 E 7 11 4 6 1002.8 1002.7 0.0
25/11:00am 29.1 32.3 21.3 62 5.2 NNE 6 13 3 7 1002.8 1002.7 0.0
25/10:30am 27.3 30.2 20.6 67 4.4 N 6 9 3 5 1003.0 1002.9 0.0
25/10:00am 26.4 29.0 20.5 70 3.9 N 7 9 4 5 1002.8 1002.7 0.0
25/09:30am 25.4 29.0 20.6 75 3.1 NNE 2 7 1 4 1002.9 1002.8 0.0
25/09:00am 24.0 26.7 20.3 80 2.4 NE 6 9 3 5 1003.1 1003.0 2.8
25/08:30am 23.3 26.1 20.8 86 1.6 NE 7 11 4 6 1003.1 1003.0 2.8
25/08:12am 22.7 25.5 20.8 89 1.2 NNE 7 9 4 5 1003.0 1002.9 2.8
25/08:00am 22.3 25.4 21.1 93 0.8 NNE 6 11 3 6 1003.0 1002.9 2.8
25/07:30am 21.4 24.3 20.7 96 0.5 NNW 6 9 3 5 1002.9 1002.8 2.8
25/07:13am 21.5 25.2 20.8 96 0.5 WNW 2 6 1 3 1002.7 1002.6 2.8
25/07:00am 21.4 24.4 20.9 97 0.3 NNW 6 7 3 4 1002.7 1002.6 2.8
25/06:32am 21.5 24.4 21.0 97 0.3 NNW 7 9 4 5 1002.3 1002.2 2.8
25/06:30am 21.4 24.4 20.9 97 0.3 N 6 7 3 4 1002.3 1002.2 2.8
25/06:17am 21.5 25.7 21.0 97 0.3 CALM 0 0 0 0 1002.1 1002.0 2.8
25/06:00am 21.5 25.7 21.0 97 0.3 CALM 0 0 0 0 1002.0 1001.9 2.8
25/05:30am 21.5 24.9 21.0 97 0.3 NE 4 7 2 4 1002.0 1001.9 2.8
25/05:28am 21.5 25.3 21.0 97 0.3 ENE 2 7 1 4 1002.0 1001.9 2.8
25/05:02am 21.0 24.9 20.3 96 0.5 CALM 0 0 0 0 1001.9 1001.8 2.8
25/05:00am 20.9 24.7 20.2 96 0.5 CALM 0 0 0 0 1001.9 1001.8 2.8
25/04:30am 20.8 23.4 20.1 96 0.4 S 6 9 3 5 1001.9 1001.8 2.8
25/04:00am 20.8 23.2 20.0 95 0.5 SSW 7 9 4 5 1002.0 1001.9 2.8
25/03:30am 21.1 25.0 20.3 95 0.5 CALM 0 0 0 0 1002.2 1002.1 2.8
25/03:00am 21.3 25.1 20.1 93 0.8 CALM 0 0 0 0 1002.5 1002.4 2.8
25/02:30am 21.8 24.6 20.4 92 0.9 SE 6 7 3 4 1003.1 1003.0 2.8
25/02:00am 21.9 24.5 20.5 92 0.9 SE 7 9 4 5 1003.7 1003.6 2.8
25/01:30am 21.9 24.6 20.2 90 1.1 NNW 6 7 3 4 1004.5 1004.4 2.8
25/01:00am 21.9 24.3 20.0 89 1.2 WNW 7 9 4 5 1005.0 1004.9 2.8
25/12:30am 22.2 24.3 20.1 88 1.4 WNW 9 11 5 6 1005.5 1005.4 2.8
25/12:00am 22.2 24.2 19.9 87 1.5 WNW 9 13 5 7 1005.5 1005.4 2.8
 
Date/Time
EDT
Temp
°C
App
Temp
°C
Dew
Point
Rel
Hum
%
Delta-T
°C
Wind Press
QNH
hPa
Press
MSL
hPa
Rain
since 9 am
mm
Dir
 
Spd
km/h
Gust
km/h
Spd
kts
Gust
kts
24/11:30pm 22.8 24.4 20.0 84 1.8 ESE 11 13 6 7 1005.3 1005.2 2.8
24/11:00pm 22.9 25.2 19.9 83 1.9 S 7 9 4 5 1005.9 1005.8 2.8
24/10:30pm 23.0 24.9 19.8 82 2.1 SW 9 13 5 7 1006.4 1006.3 2.8
24/10:00pm 23.6 25.4 20.3 82 2.1 SSE 11 17 6 9 1006.7 1006.6 2.8
24/09:30pm 23.0 26.4 21.6 92 0.9 WNW 6 9 3 5 1006.6 1006.5 2.8
24/08:30pm 23.5 28.0 21.6 89 1.3 CALM 0 0 0 0 1004.9 1004.8 2.2
24/08:00pm 23.6 27.6 21.3 87 1.5 NNW 2 6 1 3 1004.6 1004.5 1.6
24/07:30pm 23.4 25.7 21.3 88 1.4 NW 11 15 6 8 1004.8 1004.7 1.2
24/07:00pm 24.7 25.0 20.8 79 2.6 NNW 20 30 11 16 1004.0 1003.9 0.4
24/05:30pm 30.2 29.2 19.6 53 6.9 E 24 30 13 16 1002.4 1002.3 0.0
24/05:00pm 31.3 31.0 19.6 49 7.7 E 20 30 11 16 1002.1 1002.0 0.0
24/04:30pm 32.1 33.2 20.4 50 7.8 E 15 24 8 13 1002.4 1002.3 0.0
24/04:00pm 32.8 35.0 19.6 45 8.7 E 7 17 4 9 1003.0 1002.9 0.0
24/03:30pm 33.4 34.3 18.3 40 9.8 ENE 11 17 6 9 1002.8 1002.7 0.0
24/03:00pm 33.3 34.6 20.1 45 8.8 NE 13 19 7 10 1003.5 1003.4 0.0
24/02:30pm 32.8 33.6 18.2 42 9.4 NNE 11 20 6 11 1004.2 1004.1 0.0
24/02:00pm 32.2 33.8 20.8 51 7.7 NNE 13 22 7 12 1004.7 1004.6 0.0
24/01:30pm 31.7 33.9 21.2 53 7.1 NNE 11 20 6 11 1005.2 1005.1 0.0
24/01:00pm 30.6 32.2 20.8 56 6.5 N 13 19 7 10 1005.7 1005.6 0.0
24/12:30pm 29.6 31.7 20.2 57 6.2 NE 9 19 5 10 1006.2 1006.1 0.0
24/12:00pm 28.8 32.0 21.3 64 5.0 W 6 15 3 8 1006.8 1006.7 0.0
24/11:30am 27.5 30.2 20.6 66 4.5 NNW 7 13 4 7 1007.3 1007.2 0.0
24/11:00am 27.6 29.9 20.7 66 4.6 NE 9 13 5 7 1007.4 1007.3 0.0
24/10:30am 26.7 29.2 21.0 71 3.8 ENE 9 15 5 8 1007.6 1007.5 0.0
24/10:00am 25.9 29.1 21.3 76 3.1 WNW 6 7 3 4 1008.1 1008.0 0.0
24/09:59am 25.7 28.8 21.1 76 3.0 WNW 6 7 3 4 1008.1 1008.0 0.0
24/09:46am 25.2 29.2 21.3 79 2.6 NW 2 9 1 5 1008.1 1008.0 0.0
24/09:44am 25.3 29.5 21.8 81 2.3 WNW 2 9 1 5 1008.1 1008.0 0.0
24/09:30am 24.8 27.9 21.1 80 2.4 WSW 6 9 3 5 1008.1 1008.0 0.0
24/09:00am 24.7 29.1 21.4 82 2.2 CALM 0 2 0 1 1008.1 1008.0 0.0
24/08:30am 23.9 27.6 21.4 86 1.6 SW 4 9 2 5 1008.1 1008.0 0.0
24/08:00am 23.3 26.3 21.2 88 1.4 SSW 7 11 4 6 1007.9 1007.8 0.0
24/07:30am 22.9 25.9 21.2 90 1.1 SSW 7 9 4 5 1007.8 1007.7 0.0
24/07:00am 22.6 25.6 21.2 92 0.9 SSW 7 9 4 5 1007.5 1007.4 0.0
24/06:30am 22.2 25.1 21.0 93 0.8 SSW 7 9 4 5 1007.1 1007.0 0.0
24/06:00am 22.2 25.1 21.0 93 0.8 SSW 7 9 4 5 1006.8 1006.7 0.0
24/05:30am 22.2 25.3 21.0 93 0.8 SSW 6 7 3 4 1006.6 1006.5 0.0
24/05:00am 22.1 25.1 20.9 93 0.8 SSW 6 9 3 5 1006.4 1006.3 0.0
24/04:39am 22.1 24.9 20.9 93 0.8 SW 7 9 4 5 1006.3 1006.2 0.0
24/04:30am 22.1 24.5 20.9 93 0.8 SW 9 11 5 6 1006.3 1006.2 0.0
24/04:00am 22.4 26.6 20.9 91 1.0 CALM 0 0 0 0 1006.0 1005.9 0.0
24/03:30am 22.5 26.2 20.8 90 1.1 SSW 2 6 1 3 1006.2 1006.1 0.0
24/03:00am 22.9 25.9 21.2 90 1.1 S 7 9 4 5 1006.2 1006.1 0.0
24/02:30am 22.5 26.4 20.4 88 1.4 CALM 0 6 0 3 1006.4 1006.3 0.0
24/02:00am 22.7 25.7 20.8 89 1.2 WSW 6 7 3 4 1006.4 1006.3 0.0
24/01:30am 23.4 26.4 21.3 88 1.4 SW 7 11 4 6 1006.6 1006.5 0.0
24/01:00am 23.7 26.7 21.2 86 1.6 SW 7 9 4 5 1006.6 1006.5 0.0
24/12:30am 23.9 26.4 21.0 84 1.9 WSW 9 11 5 6 1006.8 1006.7 0.0
24/12:00am 24.2 27.5 21.9 87 1.5 WSW 7 9 4 5 1006.9 1006.8 0.0
 
Date/Time
EDT
Temp
°C
App
Temp
°C
Dew
Point
Rel
Hum
%
Delta-T
°C
Wind Press
QNH
hPa
Press
MSL
hPa
Rain
since 9 am
mm
Dir
 
Spd
km/h
Gust
km/h
Spd
kts
Gust
kts
23/11:30pm 24.5 28.0 21.8 85 1.8 SSW 6 9 3 5 1007.0 1006.9 0.0
23/11:00pm 24.9 27.8 21.8 83 2.1 SSE 9 13 5 7 1007.0 1006.9 0.0
23/10:30pm 25.2 28.1 21.7 81 2.3 SSE 9 11 5 6 1006.9 1006.8 0.0
23/10:00pm 25.3 28.1 21.6 80 2.5 SSE 9 11 5 6 1006.7 1006.6 0.0
23/09:30pm 25.2 28.5 21.5 80 2.5 W 6 9 3 5 1006.7 1006.6 0.0
23/09:00pm 24.9 27.6 21.4 81 2.3 W 9 11 5 6 1006.4 1006.3 0.0
23/08:30pm 25.4 29.0 21.3 78 2.7 SSW 4 7 2 4 1006.3 1006.2 0.0
23/08:00pm 25.7 27.8 20.9 75 3.2 S 11 17 6 9 1006.3 1006.2 0.0
23/07:30pm 27.1 28.4 20.9 69 4.1 S 15 26 8 14 1006.4 1006.3 0.0
23/07:00pm 28.5 30.3 21.8 67 4.5 ENE 15 20 8 11 1005.5 1005.4 0.0
23/06:30pm 28.1 28.0 19.9 61 5.4 ENE 20 26 11 14 1004.8 1004.7 0.0
23/06:00pm 26.9 24.0 17.9 57 5.7 NE 30 41 16 22 1004.7 1004.6 0.0
23/05:30pm 31.3 31.4 21.2 55 6.8 NE 22 32 12 17 1004.2 1004.1 0.0
23/05:00pm 31.9 32.5 21.1 52 7.3 ENE 19 24 10 13 1004.5 1004.4 0.0
23/04:30pm 32.9 33.1 19.4 45 8.9 ENE 17 28 9 15 1004.6 1004.5 0.0
23/04:00pm 33.3 34.3 18.6 41 9.6 NE 11 19 6 10 1004.6 1004.5 0.0
23/03:30pm 33.3 34.8 19.7 44 9.0 N 11 19 6 10 1005.2 1005.1 0.0
23/03:00pm 33.0 34.1 18.0 41 9.7 N 9 17 5 9 1005.8 1005.7 0.0
23/02:30pm 32.7 33.8 18.8 43 9.1 NE 11 19 6 10 1005.9 1005.8 0.0
23/02:00pm 31.8 33.4 19.1 47 8.3 NNE 9 15 5 8 1006.3 1006.2 0.0
23/01:30pm 31.3 33.0 19.3 49 7.8 N 9 15 5 8 1007.0 1006.9 0.0
23/01:00pm 31.0 33.0 20.0 52 7.3 N 9 15 5 8 1007.4 1007.3 0.0
23/12:30pm 29.9 32.0 20.2 56 6.4 NNW 9 19 5 10 1007.9 1007.8 0.0
23/12:00pm 28.9 30.7 19.5 57 6.1 NNE 9 17 5 9 1008.2 1008.1 0.0
23/11:30am 28.6 31.1 20.3 60 5.5 N 7 15 4 8 1008.6 1008.5 0.0
23/11:00am 27.6 30.1 19.9 63 5.0 N 6 11 3 6 1009.0 1008.9 0.0
23/10:30am 27.1 29.5 19.7 64 4.8 ENE 6 11 3 6 1009.3 1009.2 0.0
23/10:00am 26.3 28.5 19.7 67 4.3 ESE 7 11 4 6 1009.4 1009.3 0.0
23/09:30am 25.5 28.2 20.3 73 3.4 NNE 6 11 3 6 1009.9 1009.8 0.0
23/09:00am 24.3 26.6 19.8 76 2.9 NNE 7 11 4 6 1010.2 1010.1 0.0
23/08:30am 23.7 26.1 19.6 78 2.6 N 6 9 3 5 1010.4 1010.3 0.0
23/08:00am 23.2 26.8 19.8 81 2.2 CALM 0 0 0 0 1010.3 1010.2 0.0
23/07:30am 22.8 26.7 20.3 86 1.6 CALM 0 0 0 0 1010.2 1010.1 0.0
23/07:00am 21.3 25.2 20.3 94 0.6 CALM 0 0 0 0 1010.1 1010.0 0.0
23/06:30am 20.6 24.3 19.9 96 0.4 CALM 0 0 0 0 1009.8 1009.7 0.0
23/06:00am 20.5 24.1 19.7 95 0.5 CALM 0 0 0 0 1009.7 1009.6 0.0
23/05:30am 20.7 24.1 19.4 92 0.8 CALM 0 0 0 0 1009.6 1009.5 0.0
23/05:00am 20.9 24.5 19.7 93 0.8 CALM 0 0 0 0 1009.5 1009.4 0.0
23/04:30am 20.8 23.0 19.5 92 0.8 WNW 7 9 4 5 1009.5 1009.4 0.0
23/04:00am 21.6 25.4 20.2 92 0.9 CALM 0 0 0 0 1009.6 1009.5 0.0
23/03:30am 21.6 25.4 20.2 92 0.9 CALM 0 0 0 0 1009.8 1009.7 0.0
23/03:00am 21.5 24.5 20.0 91 1.0 SW 4 7 2 4 1009.9 1009.8 0.0
23/02:41am 21.6 24.0 20.1 91 1.0 SSW 7 9 4 5 1010.1 1010.0 0.0
23/02:30am 21.5 24.0 19.8 90 1.1 SW 6 7 3 4 1010.2 1010.1 0.0
23/02:23am 21.5 23.8 19.8 90 1.1 SW 7 9 4 5 1010.2 1010.1 0.0
23/02:00am 21.5 25.2 20.0 91 1.0 CALM 0 0 0 0 1010.6 1010.5 0.0
23/01:30am 21.2 24.5 19.1 88 1.3 CALM 0 0 0 0 1010.7 1010.6 0.0
23/01:00am 21.8 25.4 19.7 88 1.3 CALM 0 0 0 0 1010.9 1010.8 0.0
23/12:30am 21.7 25.1 19.4 87 1.5 CALM 0 0 0 0 1011.3 1011.2 0.0
23/12:00am 22.2 24.1 19.7 86 1.6 ENE 9 13 5 7 1011.5 1011.4 0.0
 
Date/Time
EDT
Temp
°C
App
Temp
°C
Dew
Point
Rel
Hum
%
Delta-T
°C
Wind Press
QNH
hPa
Press
MSL
hPa
Rain
since 9 am
mm
Dir
 
Spd
km/h
Gust
km/h
Spd
kts
Gust
kts
22/11:30pm 22.4 23.8 19.6 84 1.8 ENE 11 15 6 8 1011.8 1011.7 0.0
22/11:00pm 22.5 23.9 19.5 83 1.9 ENE 11 13 6 7 1012.1 1012.0 0.0
22/10:30pm 22.9 24.0 19.7 82 2.1 E 13 15 7 8 1012.3 1012.2 0.0
22/10:00pm 23.4 24.8 19.5 79 2.5 ENE 11 15 6 8 1012.3 1012.2 0.0
22/09:30pm 23.9 26.2 19.8 78 2.6 SE 7 9 4 5 1012.2 1012.1 0.0
22/09:00pm 24.5 26.4 19.8 75 3.0 SE 9 13 5 7 1011.9 1011.8 0.0
22/08:30pm 24.8 26.1 19.4 72 3.5 E 11 15 6 8 1011.6 1011.5 0.0
22/08:00pm 25.2 26.0 19.1 69 3.9 ENE 13 19 7 10 1011.2 1011.1 0.0
22/07:30pm 26.1 26.0 18.8 64 4.7 ENE 17 22 9 12 1010.7 1010.6 0.0
22/07:00pm 27.0 26.6 18.8 60 5.3 ENE 19 24 10 13 1010.2 1010.1 0.0
22/06:30pm 27.7 27.3 19.0 59 5.6 ENE 19 22 10 12 1009.8 1009.7 0.0
22/06:00pm 28.2 27.3 19.1 57 5.9 E 22 30 12 16 1009.7 1009.6 0.0
22/05:30pm 28.1 27.2 18.2 55 6.3 ENE 20 30 11 16 1009.8 1009.7 0.0
22/05:00pm 29.3 27.6 18.1 51 7.2 ENE 24 32 13 17 1009.8 1009.7 0.0
22/04:30pm 29.0 27.0 18.4 52 6.8 ENE 26 35 14 19 1010.0 1009.9 0.0
22/04:00pm 29.8 29.0 19.2 53 6.9 E 22 32 12 17 1010.1 1010.0 0.0
22/03:30pm 29.4 28.4 17.6 49 7.5 E 19 32 10 17 1010.2 1010.1 0.0
22/03:00pm 30.5 31.1 17.6 46 8.2 NNE 11 20 6 11 1010.5 1010.4 0.0

Other Formats:

Comma delimited format used in spreadsheet applications
http://www.bom.gov.au/fwo/IDN60801/IDN60801.95753.axf

JavaScript Object Notation format (JSON) in row-major order
http://www.bom.gov.au/fwo/IDN60801/IDN60801.95753.json